Time;durP1;ratioP1;P1;durP2;ratioP2;P2;SDS_P1;SDS_P2;PMS_P1;PMS_P2;Temp;Humidity;BMP_temperature;BMP_pressure;BME280_temperature;BME280_humidity;BME280_pressure;Samples;Min_cycle;Max_cycle;Signal;HPM_P1;HPM_P2
2021/09/30 00:00:46;;;;;;;9.75;5.30;;;;;;;13.14;76.14;102158.13;1763955;80;21640;-60
2021/09/30 00:03:13;;;;;;;10.00;5.78;;;;;;;13.11;76.14;102159.55;1763210;80;21117;-60
2021/09/30 00:05:42;;;;;;;10.43;5.72;;;;;;;13.09;76.47;102151.97;1770075;80;21468;-60
2021/09/30 00:08:10;;;;;;;12.93;6.40;;;;;;;13.09;77.54;102153.31;1767794;80;21123;-59
2021/09/30 00:10:39;;;;;;;11.50;5.97;;;;;;;13.08;78.80;102160.97;1763717;80;21476;-60
2021/09/30 00:13:21;;;;;;;10.85;6.00;;;;;;;13.07;78.99;102156.51;1769335;80;21079;-61
2021/09/30 00:15:52;;;;;;;13.55;5.90;;;;;;;13.02;79.11;102180.83;1780933;80;22992;-60
2021/09/30 00:34:48;;;;;;;11.65;5.75;;;;;;;12.73;83.66;102171.60;1767436;80;21093;-61
2021/09/30 00:47:47;;;;;;;9.08;5.83;;;;;;;12.49;84.89;102165.39;1761272;80;21107;-60
2021/09/30 00:50:36;;;;;;;20.32;6.75;;;;;;;12.42;84.97;102161.94;1765371;79;21043;-59
2021/09/30 01:18:30;;;;;;;11.73;6.45;;;;;;;12.20;86.06;102156.11;1768659;79;21053;-60
2021/09/30 01:26:49;;;;;;;10.03;5.58;;;;;;;11.85;86.80;102166.57;1786628;78;21171;-61
2021/09/30 01:34:04;;;;;;;13.03;6.40;;;;;;;11.73;87.96;102167.20;1786705;78;21028;-59
2021/09/30 01:57:49;;;;;;;22.50;6.90;;;;;;;11.62;88.66;102173.23;1777592;80;21484;-59
2021/09/30 01:58:42;;;;;;;15.35;6.15;;;;;;;11.44;87.75;102176.63;1734879;78;21075;-59
2021/09/30 02:22:48;;;;;;;11.48;5.60;;;;;;;11.08;89.83;102188.34;1756281;80;21023;-60
2021/09/30 03:00:59;;;;;;;8.83;5.80;;;;;;;10.62;90.42;102203.70;1780136;78;20948;-60
2021/09/30 03:03:29;;;;;;;14.45;6.55;;;;;;;10.52;90.76;102199.80;1794746;79;21173;-60
2021/09/30 03:05:58;;;;;;;10.20;5.75;;;;;;;10.48;91.01;102191.80;1765936;79;20992;-60
2021/09/30 03:08:28;;;;;;;14.07;6.58;;;;;;;10.49;91.47;102190.42;1809893;79;21068;-59
2021/09/30 03:10:55;;;;;;;11.85;6.15;;;;;;;10.53;91.49;102196.22;1802488;78;20949;-59
2021/09/30 03:13:23;;;;;;;10.45;6.40;;;;;;;10.54;91.39;102192.63;1793844;79;21044;-60
2021/09/30 03:16:04;;;;;;;12.68;5.83;;;;;;;10.54;91.63;102201.11;1804923;78;20996;-59
2021/09/30 03:22:13;;;;;;;14.25;6.58;;;;;;;10.55;91.82;102197.08;1798684;79;21533;-60
2021/09/30 03:23:33;;;;;;;15.55;6.62;;;;;;;10.53;91.91;102199.33;1806588;78;21019;-59
2021/09/30 03:26:01;;;;;;;14.05;6.20;;;;;;;10.52;92.22;102204.27;1811160;78;21048;-59
2021/09/30 03:28:29;;;;;;;14.10;6.47;;;;;;;10.51;92.27;102194.00;1796498;78;21144;-59
2021/09/30 03:30:57;;;;;;;11.22;6.70;;;;;;;10.49;92.49;102205.64;1784798;78;21034;-60
2021/09/30 03:33:25;;;;;;;14.80;7.10;;;;;;;10.49;92.84;102214.56;1799782;78;21457;-59
2021/09/30 03:35:59;;;;;;;15.58;7.12;;;;;;;10.51;93.03;102200.70;1813362;78;21410;-61
2021/09/30 03:38:29;;;;;;;11.63;6.35;;;;;;;10.52;92.69;102201.58;1809121;78;21019;-60
2021/09/30 03:40:56;;;;;;;11.40;6.28;;;;;;;10.49;92.34;102198.94;1784040;78;21102;-61
2021/09/30 03:43:26;;;;;;;19.95;8.53;;;;;;;10.46;92.19;102202.53;1812443;78;21015;-61
2021/09/30 03:45:55;;;;;;;15.95;9.15;;;;;;;10.49;92.47;102205.64;1799911;78;21007;-61
2021/09/30 03:48:24;;;;;;;25.27;8.55;;;;;;;10.54;92.38;102204.69;1822535;77;21036;-59
2021/09/30 04:01:28;;;;;;;14.58;6.62;;;;;;;10.52;93.27;102205.17;1825327;78;21059;-60
2021/09/30 04:03:56;;;;;;;12.55;7.00;;;;;;;10.54;93.18;102200.67;1799047;78;21047;-61
2021/09/30 04:06:22;;;;;;;13.65;6.78;;;;;;;10.56;93.12;102208.68;1817324;78;21102;-59
2021/09/30 04:08:51;;;;;;;15.80;7.30;;;;;;;10.53;92.66;102214.98;1812066;78;22219;-59
2021/09/30 04:11:20;;;;;;;17.23;6.53;;;;;;;10.52;92.95;102209.63;1811096;78;21404;-60
2021/09/30 04:13:50;;;;;;;18.80;7.20;;;;;;;10.54;93.15;102216.77;1799983;78;20936;-60
2021/09/30 04:16:17;;;;;;;11.60;6.35;;;;;;;10.55;93.01;102211.83;1825840;78;21003;-60
2021/09/30 04:18:44;;;;;;;11.33;5.97;;;;;;;10.56;92.99;102243.55;1826017;78;21187;-60
2021/09/30 04:21:31;;;;;;;12.15;6.83;;;;;;;10.56;92.69;102221.66;1813196;78;20991;-60
2021/09/30 04:23:58;;;;;;;13.83;6.53;;;;;;;10.58;92.45;102252.02;1810764;78;21126;-60
2021/09/30 04:26:27;;;;;;;13.13;7.00;;;;;;;10.65;92.77;102219.76;1795869;78;21137;-60
2021/09/30 04:28:55;;;;;;;10.75;6.30;;;;;;;10.70;92.25;102242.05;1810005;78;21028;-60
2021/09/30 04:31:23;;;;;;;12.53;6.30;;;;;;;10.74;92.04;102226.37;1788548;79;21046;-59
2021/09/30 04:33:51;;;;;;;15.55;6.75;;;;;;;10.75;92.21;102222.78;1792163;79;20949;-60
2021/09/30 04:36:21;;;;;;;23.50;7.20;;;;;;;10.78;92.14;102217.38;1773714;79;21508;-60
2021/09/30 04:38:49;;;;;;;11.70;6.83;;;;;;;10.84;92.19;102230.70;1774460;79;21045;-59
2021/09/30 04:41:17;;;;;;;16.65;6.95;;;;;;;10.95;92.22;102222.52;1793305;78;20965;-61
2021/09/30 04:43:45;;;;;;;14.70;6.60;;;;;;;11.10;91.61;102217.39;1755543;80;21328;-60
2021/09/30 04:46:17;;;;;;;14.05;6.75;;;;;;;11.21;90.74;102225.30;1775186;78;21460;-60
2021/09/30 04:48:48;;;;;;;14.10;6.30;;;;;;;11.30;90.62;102214.45;1777518;79;20969;-61
2021/09/30 04:51:15;;;;;;;13.70;6.92;;;;;;;11.43;89.95;102224.55;1794335;78;21370;-61
2021/09/30 04:53:43;;;;;;;13.00;6.33;;;;;;;11.51;89.14;102206.98;1779538;79;21092;-61
2021/09/30 04:56:15;;;;;;;14.15;6.62;;;;;;;11.60;89.04;102208.60;1792555;79;21466;-61
2021/09/30 04:58:41;;;;;;;12.88;6.92;;;;;;;11.69;88.81;102225.94;1797494;79;20918;-61
2021/09/30 05:01:09;;;;;;;12.90;5.95;;;;;;;11.81;87.93;102219.47;1776106;79;21645;-60
2021/09/30 05:03:38;;;;;;;17.57;6.72;;;;;;;11.86;87.42;102226.13;1801170;79;20969;-60
2021/09/30 05:06:07;;;;;;;15.28;6.10;;;;;;;11.92;86.83;102223.32;1786663;79;21000;-60
2021/09/30 05:08:34;;;;;;;18.00;6.95;;;;;;;11.96;86.50;102231.76;1778378;79;21585;-61
2021/09/30 05:11:02;;;;;;;11.65;6.42;;;;;;;11.98;86.09;102221.86;1780423;79;21072;-61
2021/09/30 05:13:37;;;;;;;14.13;6.47;;;;;;;12.01;86.10;102223.66;1785526;78;21095;-60
2021/09/30 05:16:10;;;;;;;15.50;7.10;;;;;;;12.09;86.30;102231.12;1798378;79;21000;-60
2021/09/30 05:18:56;;;;;;;15.83;6.75;;;;;;;12.20;84.63;102237.65;1801436;79;21032;-60
2021/09/30 05:21:24;;;;;;;12.95;6.83;;;;;;;12.27;83.73;102239.33;1787881;78;21139;-59
2021/09/30 05:23:52;;;;;;;12.95;7.03;;;;;;;12.57;82.47;102246.83;1802845;79;21004;-61
2021/09/30 05:26:20;;;;;;;14.25;6.92;;;;;;;12.87;79.94;102230.52;1797194;79;21000;-60
2021/09/30 05:28:47;;;;;;;12.43;6.92;;;;;;;13.18;78.92;102240.65;1795248;78;21099;-60
2021/09/30 05:31:15;;;;;;;11.33;6.80;;;;;;;13.53;77.21;102252.02;1786750;79;21123;-60
2021/09/30 05:33:57;;;;;;;13.03;7.15;;;;;;;13.99;75.42;102272.94;1746668;79;21169;-60
2021/09/30 05:36:24;;;;;;;15.78;6.62;;;;;;;14.31;73.50;102252.32;1789044;79;21079;-61
2021/09/30 05:38:52;;;;;;;13.62;7.65;;;;;;;14.50;71.67;102267.58;1795365;79;21505;-60
2021/09/30 05:41:19;;;;;;;18.15;7.78;;;;;;;14.59;70.73;102251.11;1800934;78;21184;-60
2021/09/30 05:43:55;;;;;;;14.25;6.50;;;;;;;14.55;70.65;102283.17;1794303;78;21517;-60
2021/09/30 05:46:34;;;;;;;16.90;7.25;;;;;;;14.35;70.52;102265.28;1797097;78;21770;-60
2021/09/30 05:48:50;;;;;;;17.60;7.20;;;;;;;14.06;71.04;102258.84;1784050;79;20969;-61
2021/09/30 05:51:17;;;;;;;10.78;7.08;;;;;;;13.84;72.27;102260.73;1796234;79;22073;-61
2021/09/30 05:53:46;;;;;;;13.00;6.55;;;;;;;13.71;72.89;102269.11;1787110;78;21104;-61
2021/09/30 05:56:28;;;;;;;13.13;7.10;;;;;;;13.55;72.98;102250.17;1786541;79;21004;-62
2021/09/30 05:58:56;;;;;;;12.90;6.75;;;;;;;13.31;73.99;102271.33;1794376;78;21088;-60
2021/09/30 06:12:19;;;;;;;16.90;7.87;;;;;;;12.71;76.19;102292.30;1766757;78;21983;-60
2021/09/30 06:14:42;;;;;;;11.68;7.28;;;;;;;12.58;76.71;102279.09;1790998;79;21386;-60
2021/09/30 06:17:11;;;;;;;21.50;7.75;;;;;;;12.55;77.22;102281.85;1794392;78;21405;-61
2021/09/30 06:19:41;;;;;;;15.00;7.25;;;;;;;12.53;77.69;102280.99;1786471;79;21108;-58
2021/09/30 06:22:09;;;;;;;16.55;7.62;;;;;;;12.52;77.78;102288.64;1791694;79;21018;-61
2021/09/30 06:24:38;;;;;;;11.20;7.17;;;;;;;12.50;78.04;102281.50;1793760;79;21105;-60
2021/09/30 06:27:05;;;;;;;14.35;7.58;;;;;;;12.47;77.16;102295.88;1788528;78;20961;-60
2021/09/30 06:29:33;;;;;;;14.28;7.47;;;;;;;12.39;76.69;102301.87;1785259;79;21123;-60
2021/09/30 06:32:03;;;;;;;19.02;7.22;;;;;;;12.32;76.33;102299.30;1735304;80;21032;-60
2021/09/30 06:34:31;;;;;;;12.00;7.28;;;;;;;12.26;76.84;102276.52;1734245;81;22141;-61
2021/09/30 06:37:09;;;;;;;17.35;7.58;;;;;;;12.24;76.66;102314.66;1727248;81;21885;-60
2021/09/30 06:39:37;;;;;;;12.70;7.70;;;;;;;12.15;76.37;102326.92;1728211;82;21092;-60
2021/09/30 06:42:06;;;;;;;13.72;7.85;;;;;;;12.06;76.55;102305.58;1732191;81;21003;-60
2021/09/30 06:44:48;;;;;;;13.25;8.08;;;;;;;12.06;76.60;102307.80;1743645;80;21112;-60
2021/09/30 06:47:38;;;;;;;13.30;7.65;;;;;;;12.05;77.30;102300.64;1742926;81;21076;-59
2021/09/30 06:50:09;;;;;;;12.98;7.35;;;;;;;12.07;76.43;102314.08;1739790;81;21191;-60
2021/09/30 06:52:55;;;;;;;15.45;7.45;;;;;;;12.07;75.72;102311.39;1719385;82;21816;-60
2021/09/30 06:55:30;;;;;;;;;;;;;;;12.07;76.31;102314.08;1727635;81;21106;-60
2021/09/30 06:58:05;;;;;;;17.65;8.45;;;;;;;12.09;75.14;102353.45;1698501;80;20228;-61
2021/09/30 07:00:56;;;;;;;15.30;9.08;;;;;;;12.10;75.05;102320.74;1740694;81;21079;-61
2021/09/30 07:03:39;;;;;;;14.63;8.35;;;;;;;12.12;75.01;102312.19;1725717;82;21586;-61
2021/09/30 07:06:12;;;;;;;13.72;8.55;;;;;;;12.13;74.49;102324.25;1778551;78;21041;-59
2021/09/30 07:08:39;;;;;;;14.93;8.05;;;;;;;12.19;74.40;102305.79;1790060;78;21126;-59
2021/09/30 07:11:06;;;;;;;15.48;7.92;;;;;;;12.31;74.72;102314.10;1785732;78;21099;-60
2021/09/30 07:13:34;;;;;;;13.85;8.10;;;;;;;12.48;73.44;102328.59;1790854;79;22176;-59
2021/09/30 07:16:00;;;;;;;13.35;8.03;;;;;;;12.64;73.09;102301.42;1725310;82;21598;-59
2021/09/30 07:18:29;;;;;;;16.62;8.80;;;;;;;12.84;72.34;102322.11;1733068;81;21550;-59
2021/09/30 07:21:00;;;;;;;16.20;9.05;;;;;;;12.96;71.55;102320.11;1739187;81;21659;-59
2021/09/30 07:23:31;;;;;;;13.62;8.28;;;;;;;12.94;70.47;102316.09;1731175;81;21084;-58
2021/09/30 07:25:59;;;;;;;17.05;8.48;;;;;;;12.90;70.84;102312.56;1739748;81;21600;-59
2021/09/30 07:28:27;;;;;;;16.90;7.78;;;;;;;12.83;70.12;102320.81;1737815;81;21182;-59
2021/09/30 07:30:54;;;;;;;10.88;7.25;;;;;;;12.70;68.76;102333.58;1732537;82;21126;-61
2021/09/30 07:33:24;;;;;;;16.27;8.33;;;;;;;12.57;70.26;102337.86;1726011;81;21099;-59
2021/09/30 07:35:52;;;;;;;10.98;6.67;;;;;;;12.51;69.62;102325.88;1721802;83;21197;-59
2021/09/30 07:38:22;;;;;;;12.00;7.60;;;;;;;12.49;70.17;102326.36;1738928;80;21346;-59
2021/09/30 07:40:51;;;;;;;12.80;7.72;;;;;;;12.49;68.41;102310.66;1738326;80;21188;-59
2021/09/30 07:43:18;;;;;;;14.58;7.40;;;;;;;12.46;68.79;102330.42;1737654;81;21009;-59
2021/09/30 07:45:45;;;;;;;11.35;7.30;;;;;;;12.42;67.59;102328.70;1740148;81;21128;-59
2021/09/30 07:48:14;;;;;;;11.65;6.87;;;;;;;12.43;68.20;102319.72;1736753;81;20953;-60
2021/09/30 07:50:41;;;;;;;16.17;7.53;;;;;;;12.45;68.84;102320.58;1739856;80;21120;-60
2021/09/30 07:53:07;;;;;;;12.18;7.30;;;;;;;12.48;66.88;102311.58;1731585;81;21675;-59
2021/09/30 07:55:36;;;;;;;12.25;6.40;;;;;;;12.52;66.58;102311.95;1732515;81;21069;-59
2021/09/30 07:58:06;;;;;;;14.18;6.53;;;;;;;12.53;66.67;102317.76;1739384;81;21011;-60
2021/09/30 08:00:32;;;;;;;9.05;6.53;;;;;;;12.45;65.14;102319.23;1736551;81;21095;-59
2021/09/30 08:03:00;;;;;;;14.85;6.20;;;;;;;12.40;66.04;102339.95;1722586;80;21075;-59
2021/09/30 08:05:27;;;;;;;11.08;5.53;;;;;;;12.40;65.06;102326.51;1719651;83;21115;-61
2021/09/30 08:07:58;;;;;;;10.90;5.92;;;;;;;12.41;64.21;102324.25;1776102;79;21512;-60
2021/09/30 08:10:26;;;;;;;10.95;5.78;;;;;;;12.39;65.15;102306.80;1765208;79;21056;-59
2021/09/30 08:12:55;;;;;;;10.98;5.90;;;;;;;12.37;64.96;102309.08;1737919;79;20917;-60
2021/09/30 08:15:27;;;;;;;15.93;6.10;;;;;;;12.31;65.41;102319.05;1767865;79;21039;-60
2021/09/30 08:17:57;;;;;;;14.83;5.85;;;;;;;12.27;65.08;102324.05;1698986;82;21844;-61
2021/09/30 08:20:25;;;;;;;9.98;5.87;;;;;;;12.30;65.84;102310.98;1771105;79;21044;-61
2021/09/30 08:22:53;;;;;;;11.35;5.15;;;;;;;12.40;64.66;102327.85;1766349;79;21470;-61
2021/09/30 08:25:20;;;;;;;10.90;5.75;;;;;;;12.48;63.77;102326.38;1772042;79;20952;-61
2021/09/30 08:27:49;;;;;;;10.10;5.95;;;;;;;12.54;63.95;102318.19;1766105;79;21066;-60
2021/09/30 08:30:16;;;;;;;13.50;4.87;;;;;;;12.60;64.04;102310.89;1768589;78;21166;-61
2021/09/30 08:32:45;;;;;;;10.20;5.17;;;;;;;12.67;63.54;102324.23;1726165;81;21136;-60
2021/09/30 08:35:12;;;;;;;9.75;5.28;;;;;;;12.70;62.18;102312.05;1788906;78;21115;-60
2021/09/30 08:37:40;;;;;;;8.83;5.37;;;;;;;12.69;61.69;102319.70;1788043;78;21481;-60
2021/09/30 08:40:09;;;;;;;12.70;5.05;;;;;;;12.67;61.52;102310.77;1789475;78;21067;-60
2021/09/30 08:42:36;;;;;;;8.55;5.72;;;;;;;12.65;61.86;102331.44;1787436;78;21130;-60
2021/09/30 08:45:05;;;;;;;8.50;4.58;;;;;;;12.66;61.06;102321.11;1789228;78;21029;-61
2021/09/30 08:47:34;;;;;;;6.92;4.42;;;;;;;12.63;61.60;102318.04;1794382;78;21496;-61
2021/09/30 08:50:02;;;;;;;6.83;4.25;;;;;;;12.60;59.88;102321.66;1793741;78;21485;-61
2021/09/30 08:52:29;;;;;;;7.83;4.12;;;;;;;12.61;59.93;102310.45;1785903;78;21075;-60
2021/09/30 08:54:57;;;;;;;9.13;3.60;;;;;;;12.60;59.67;102308.20;1789120;78;21140;-60
2021/09/30 08:57:25;;;;;;;8.48;3.92;;;;;;;12.61;57.85;102318.05;1779659;78;21084;-60
2021/09/30 09:00:08;;;;;;;6.17;4.10;;;;;;;12.57;59.05;102301.55;1788517;78;20972;-59
2021/09/30 09:02:50;;;;;;;12.73;3.95;;;;;;;12.63;60.57;102296.95;1792433;78;21105;-60
2021/09/30 09:05:21;;;;;;;6.45;4.55;;;;;;;12.79;60.46;102311.00;1795237;78;21067;-60
2021/09/30 09:08:00;;;;;;;9.40;4.35;;;;;;;12.92;59.84;102310.30;1730955;81;21563;-60
2021/09/30 09:10:32;;;;;;;7.30;4.20;;;;;;;12.93;58.21;102318.35;1721518;81;21016;-61
2021/09/30 09:13:13;;;;;;;9.95;4.10;;;;;;;12.89;56.40;102315.30;1704522;81;21499;-60
2021/09/30 09:15:59;;;;;;;8.00;4.90;;;;;;;12.86;57.50;102313.55;1717316;81;21041;-59
2021/09/30 09:18:34;;;;;;;5.85;3.60;;;;;;;12.95;56.71;102337.19;1727059;81;21088;-60
2021/09/30 09:21:23;;;;;;;7.65;3.90;;;;;;;13.01;56.86;102311.00;1712755;81;21631;-60
2021/09/30 09:23:57;;;;;;;9.63;3.72;;;;;;;13.07;56.51;102297.87;1712949;82;21522;-60
2021/09/30 09:26:32;;;;;;;8.30;3.87;;;;;;;13.10;55.19;102307.23;1721400;81;21077;-59
2021/09/30 09:29:13;;;;;;;5.72;3.60;;;;;;;13.08;54.30;102315.80;1727142;81;21457;-60
2021/09/30 09:31:47;;;;;;;7.55;4.10;;;;;;;12.98;54.68;102311.54;1715458;81;20918;-59
2021/09/30 09:34:29;;;;;;;9.58;4.67;;;;;;;12.97;54.97;102320.53;1720298;81;21860;-61
2021/09/30 09:37:19;;;;;;;8.90;4.60;;;;;;;12.99;55.22;102303.41;1719357;82;21502;-60
2021/09/30 09:39:47;;;;;;;8.15;4.75;;;;;;;13.02;57.01;102307.86;1700249;81;21126;-60
2021/09/30 09:42:25;;;;;;;7.42;4.05;;;;;;;13.11;55.58;102317.56;1721500;81;21083;-60
2021/09/30 09:45:03;;;;;;;7.03;4.50;;;;;;;13.08;55.63;102329.27;1732634;81;20994;-60
2021/09/30 09:47:36;;;;;;;8.75;4.60;;;;;;;13.04;55.31;102300.63;1724619;81;21561;-60
2021/09/30 09:50:21;;;;;;;8.48;4.90;;;;;;;13.02;56.50;102302.48;1725142;81;21058;-60
2021/09/30 09:52:58;;;;;;;7.95;4.40;;;;;;;13.10;56.64;102291.07;1729312;81;20954;-61
2021/09/30 09:55:33;;;;;;;9.13;4.87;;;;;;;13.18;56.54;102317.41;1732893;81;21152;-63
2021/09/30 09:58:10;;;;;;;11.40;4.25;;;;;;;13.12;55.38;102293.27;1732032;80;21036;-60
2021/09/30 10:01:00;;;;;;;12.93;4.72;;;;;;;13.12;56.14;102304.05;1737171;80;21081;-61
2021/09/30 10:03:31;;;;;;;7.55;4.50;;;;;;;13.15;55.07;102298.63;1740576;80;22126;-61
2021/09/30 10:06:02;;;;;;;7.42;4.37;;;;;;;13.10;54.62;102312.62;1770453;79;21001;-62
2021/09/30 10:08:31;;;;;;;8.40;4.42;;;;;;;13.07;54.97;102283.55;1765591;80;21157;-61
2021/09/30 10:11:01;;;;;;;14.33;4.70;;;;;;;13.06;55.71;102282.64;1720213;82;21764;-63
2021/09/30 10:13:28;;;;;;;7.12;4.25;;;;;;;13.09;54.81;102300.08;1709245;81;21568;-60
2021/09/30 10:15:57;;;;;;;15.00;4.08;;;;;;;13.13;54.58;102299.56;1712571;81;21115;-61
2021/09/30 10:18:27;;;;;;;6.80;4.15;;;;;;;13.09;54.29;102298.73;1709832;81;21061;-62
2021/09/30 10:20:57;;;;;;;7.12;3.85;;;;;;;13.13;55.10;102307.64;1713348;81;21014;-59
2021/09/30 10:23:35;;;;;;;10.98;4.17;;;;;;;13.13;55.05;102284.27;1717564;81;21071;-60
2021/09/30 10:26:23;;;;;;;6.78;4.00;;;;;;;13.11;54.83;102296.89;1713874;81;21067;-60
2021/09/30 10:28:59;;;;;;;8.03;3.55;;;;;;;13.13;54.88;102299.56;1703690;81;20992;-60
2021/09/30 10:31:35;;;;;;;8.53;3.90;;;;;;;13.08;54.91;102287.53;1766648;79;22118;-60
2021/09/30 10:34:06;;;;;;;9.93;3.80;;;;;;;13.09;55.10;102296.03;1718484;79;21076;-60
2021/09/30 10:36:46;;;;;;;10.60;3.27;;;;;;;13.13;54.89;102281.58;1719342;81;21941;-59
2021/09/30 10:39:24;;;;;;;8.13;3.40;;;;;;;13.14;53.96;102280.66;1711768;82;21808;-58
2021/09/30 10:41:57;;;;;;;7.03;3.42;;;;;;;13.18;54.06;102263.55;1711933;82;21084;-60
2021/09/30 10:44:30;;;;;;;10.13;3.45;;;;;;;13.24;54.11;102269.70;1707976;81;21222;-59
2021/09/30 10:46:58;;;;;;;12.13;3.62;;;;;;;13.30;53.33;102265.52;1745387;79;21075;-59
2021/09/30 10:49:45;;;;;;;14.20;4.28;;;;;;;13.33;53.21;102285.65;1752616;79;21032;-59
2021/09/30 10:52:19;;;;;;;4.12;2.80;;;;;;;13.33;52.58;102258.71;1712075;81;22366;-60
2021/09/30 10:55:06;;;;;;;7.87;3.75;;;;;;;13.33;52.91;102265.00;1712661;81;21329;-61
2021/09/30 10:57:43;;;;;;;11.65;3.83;;;;;;;13.33;53.06;102265.45;1719368;81;20902;-59
2021/09/30 11:00:22;;;;;;;7.10;3.05;;;;;;;13.39;52.19;102263.98;1713217;81;21431;-59
2021/09/30 11:03:10;;;;;;;8.03;3.87;;;;;;;13.38;52.20;102274.34;1701282;81;21577;-59
2021/09/30 11:05:41;;;;;;;13.15;3.42;;;;;;;13.37;52.11;102277.92;1756589;79;22849;-59
2021/09/30 11:08:33;;;;;;;6.70;3.27;;;;;;;13.32;52.51;102262.33;1752429;79;21103;-60
2021/09/30 11:11:09;;;;;;;11.08;3.62;;;;;;;13.33;52.97;102253.33;1705474;82;21438;-60
2021/09/30 11:14:01;;;;;;;9.45;3.98;;;;;;;13.42;54.01;102250.88;1701992;81;21100;-59
2021/09/30 11:16:44;;;;;;;7.72;3.75;;;;;;;13.43;53.95;102254.94;1702309;83;21096;-60
2021/09/30 11:19:33;;;;;;;9.58;3.65;;;;;;;13.46;53.29;102250.83;1747803;81;21116;-59
2021/09/30 11:22:06;;;;;;;9.93;3.47;;;;;;;13.48;53.09;102253.46;1749119;79;21092;-60
2021/09/30 11:24:36;;;;;;;6.92;3.47;;;;;;;13.51;52.64;102261.50;1750066;81;21048;-60
2021/09/30 11:27:06;;;;;;;8.65;3.30;;;;;;;13.46;52.80;102260.25;1757013;79;21042;-59
2021/09/30 11:29:36;;;;;;;6.60;2.95;;;;;;;13.49;52.62;102254.36;1712463;81;21473;-59
2021/09/30 11:32:18;;;;;;;8.55;3.65;;;;;;;13.52;52.77;102250.25;1717132;82;21403;-59
2021/09/30 11:34:50;;;;;;;13.28;3.70;;;;;;;13.54;52.40;102255.14;1709215;81;21072;-60
2021/09/30 11:37:32;;;;;;;9.45;4.05;;;;;;;13.57;53.21;102236.19;1710136;82;21028;-59
2021/09/30 11:40:02;;;;;;;12.05;3.62;;;;;;;13.59;53.68;102235.69;1753693;79;21660;-60
2021/09/30 11:42:48;;;;;;;10.18;3.35;;;;;;;13.64;53.35;102243.23;1758859;79;21576;-59
2021/09/30 11:45:23;;;;;;;13.13;3.42;;;;;;;13.67;52.60;102243.16;1752596;79;21571;-59
2021/09/30 11:47:50;;;;;;;5.97;3.65;;;;;;;13.68;52.01;102235.49;1720474;81;21559;-59
2021/09/30 11:50:28;;;;;;;10.70;3.40;;;;;;;13.69;52.27;102237.27;1713629;81;21874;-60
2021/09/30 11:52:58;;;;;;;9.03;2.80;;;;;;;13.66;52.23;102234.64;1711181;81;22242;-59
2021/09/30 11:55:28;;;;;;;6.55;2.90;;;;;;;13.69;51.95;102239.95;1706726;82;21352;-59
2021/09/30 11:58:00;;;;;;;5.60;3.08;;;;;;;13.67;52.10;102218.89;1706772;82;21149;-58
2021/09/30 12:00:28;;;;;;;5.85;3.10;;;;;;;13.69;52.64;102229.17;1711666;82;21120;-60
2021/09/30 12:03:03;;;;;;;9.13;3.05;;;;;;;13.73;52.52;102223.26;1726837;82;21025;-59
2021/09/30 12:05:36;;;;;;;6.47;3.10;;;;;;;13.78;52.85;102225.81;1718705;81;21108;-59
2021/09/30 12:08:06;;;;;;;8.48;3.05;;;;;;;13.83;52.70;102219.39;1693841;82;21684;-59
2021/09/30 12:10:36;;;;;;;6.33;2.90;;;;;;;13.86;52.56;102224.70;1707859;81;21199;-59
2021/09/30 12:13:19;;;;;;;10.45;3.00;;;;;;;13.87;52.61;102231.00;1759430;79;21073;-59
2021/09/30 12:15:47;;;;;;;7.50;3.25;;;;;;;13.84;52.31;102218.47;1760250;80;21913;-59
2021/09/30 12:18:22;;;;;;;8.55;3.00;;;;;;;13.82;52.63;102222.14;1779145;80;21079;-59
2021/09/30 12:20:55;;;;;;;11.73;2.92;;;;;;;13.83;52.55;102222.56;1775509;78;21521;-61
2021/09/30 12:23:24;;;;;;;10.08;2.92;;;;;;;13.83;51.62;102232.00;1773361;80;21091;-59
2021/09/30 12:25:52;;;;;;;5.60;2.70;;;;;;;13.86;51.29;102214.39;1773341;80;21051;-58
2021/09/30 12:28:19;;;;;;;4.42;2.67;;;;;;;13.85;51.72;102215.33;1775736;80;21394;-60
2021/09/30 12:30:48;;;;;;;8.90;3.05;;;;;;;13.87;51.77;102204.03;1782445;78;21545;-61
2021/09/30 12:33:16;;;;;;;6.20;2.77;;;;;;;13.88;51.83;102200.41;1747348;80;21091;-60
2021/09/30 12:35:43;;;;;;;10.50;2.80;;;;;;;13.90;51.73;102203.47;1776973;78;21539;-60
2021/09/30 12:38:19;;;;;;;5.33;2.85;;;;;;;13.96;51.49;102205.13;1785576;77;21097;-59
2021/09/30 12:40:49;;;;;;;9.13;2.80;;;;;;;14.02;51.25;102202.27;1773661;78;21501;-59
2021/09/30 12:43:29;;;;;;;4.50;3.00;;;;;;;14.03;51.05;102201.34;1780198;78;21066;-61
2021/09/30 12:46:07;;;;;;;5.83;2.87;;;;;;;14.06;50.77;102211.17;1780723;78;21136;-63
2021/09/30 12:48:37;;;;;;;6.92;2.75;;;;;;;14.07;51.05;102198.59;1781280;78;21119;-62
2021/09/30 12:51:15;;;;;;;7.08;3.30;;;;;;;14.09;50.99;102204.82;1747001;78;21659;-61
2021/09/30 12:53:53;;;;;;;5.70;2.98;;;;;;;14.10;51.50;102204.77;1771569;78;21067;-60
2021/09/30 12:56:22;;;;;;;6.45;2.72;;;;;;;14.11;51.66;102191.70;1788511;78;21644;-60
2021/09/30 12:58:51;;;;;;;10.30;3.30;;;;;;;14.17;51.82;102201.44;1779217;78;21075;-60
2021/09/30 13:01:30;;;;;;;6.55;2.33;;;;;;;14.18;51.21;102204.56;1757380;80;21556;-62
2021/09/30 13:04:21;;;;;;;4.30;2.40;;;;;;;14.16;50.55;102196.98;1790652;78;21072;-65
2021/09/30 13:07:03;;;;;;;5.03;2.40;;;;;;;14.12;50.62;102204.26;1779759;78;21047;-60
2021/09/30 13:09:38;;;;;;;7.58;2.58;;;;;;;14.12;51.39;102188.55;1774969;78;20975;-61
2021/09/30 13:12:17;;;;;;;8.93;2.65;;;;;;;14.19;50.44;102195.54;1745820;80;21040;-61
2021/09/30 13:14:54;;;;;;;7.35;2.35;;;;;;;14.19;50.13;102179.36;1779229;80;21512;-61
2021/09/30 13:17:24;;;;;;;5.20;2.80;;;;;;;14.21;50.40;102182.03;1775555;80;21488;-60
2021/09/30 13:20:06;;;;;;;5.40;2.40;;;;;;;14.25;50.51;102183.70;1767178;78;21083;-61
2021/09/30 13:22:40;;;;;;;7.28;2.70;;;;;;;14.28;50.47;102176.42;1734545;80;21083;-61
2021/09/30 13:25:14;;;;;;;7.12;2.40;;;;;;;14.35;49.75;102177.59;1738160;80;21416;-61
2021/09/30 13:27:42;;;;;;;5.22;2.08;;;;;;;14.33;49.30;102174.47;1718933;81;21126;-62
2021/09/30 13:30:13;;;;;;;7.87;2.33;;;;;;;14.35;49.08;102162.75;1722987;83;20988;-61
2021/09/30 13:32:41;;;;;;;5.22;2.25;;;;;;;14.40;48.65;102167.55;1693722;81;20968;-62
2021/09/30 13:35:09;;;;;;;3.62;1.85;;;;;;;14.41;47.60;102179.66;1730836;82;20947;-61
2021/09/30 13:37:37;;;;;;;4.28;2.87;;;;;;;14.40;48.12;102153.61;1780005;80;20975;-61
2021/09/30 13:40:07;;;;;;;9.60;2.33;;;;;;;14.41;48.07;102162.56;1767959;80;21106;-60
2021/09/30 13:42:36;;;;;;;9.25;2.30;;;;;;;14.46;48.34;102172.31;1772335;80;21067;-61
2021/09/30 13:45:07;;;;;;;9.70;2.00;;;;;;;14.56;47.63;102162.13;1773756;80;21099;-61
2021/09/30 13:47:35;;;;;;;4.08;2.12;;;;;;;14.61;47.10;102156.13;1774528;80;21035;-61
2021/09/30 13:50:02;;;;;;;9.60;2.00;;;;;;;14.62;47.10;102166.47;1779959;78;21471;-62
2021/09/30 13:52:32;;;;;;;3.60;2.10;;;;;;;14.61;47.57;102162.88;1780182;78;21294;-61
2021/09/30 13:55:00;;;;;;;5.67;2.00;;;;;;;14.60;47.39;102154.36;1737865;80;21134;-62
2021/09/30 13:57:33;;;;;;;10.28;2.25;;;;;;;14.60;46.65;102157.06;1783872;78;21107;-59
2021/09/30 13:59:59;;;;;;;5.15;2.00;;;;;;;14.58;46.51;102149.47;1774423;80;21520;-62
2021/09/30 14:02:28;;;;;;;5.72;1.95;;;;;;;14.57;46.29;102145.01;1781191;80;21479;-60
2021/09/30 14:04:55;;;;;;;5.15;2.47;;;;;;;14.56;46.53;102137.84;1780707;78;21493;-61
2021/09/30 14:07:22;;;;;;;8.83;1.80;;;;;;;14.56;45.40;102158.53;1778701;79;21500;-61
2021/09/30 14:09:50;;;;;;;11.95;7.62;;;;;;;14.61;44.79;102152.08;1780390;78;21106;-61
2021/09/30 14:12:18;;;;;;;3.12;1.90;;;;;;;14.62;45.04;102136.78;1774254;79;21019;-61
2021/09/30 14:14:47;;;;;;;7.60;2.00;;;;;;;14.64;45.49;102144.81;1771854;78;21359;-61
2021/09/30 14:17:14;;;;;;;5.45;2.15;;;;;;;14.69;45.15;102149.16;1771142;79;21135;-61
2021/09/30 14:19:42;;;;;;;8.38;2.25;;;;;;;14.69;44.97;102137.45;1780235;80;21424;-60
2021/09/30 14:22:11;;;;;;;5.67;2.30;;;;;;;14.69;45.30;102128.91;1769687;78;20967;-61
2021/09/30 14:24:40;;;;;;;5.90;2.20;;;;;;;14.71;45.97;102131.61;1771659;80;21083;-61
2021/09/30 14:27:09;;;;;;;6.80;2.30;;;;;;;14.67;45.93;102132.13;1773126;79;21028;-61